sensor_id;sensor_type;location;lat;lon;timestamp;pressure;altitude;pressure_sealevel;temperature;humidity
77120;BME280;66073;47.730;9.352;2023-06-14T00:00:13;96128.91;;;16.06;34.84
77120;BME280;66073;47.730;9.352;2023-06-14T00:02:40;96134.16;;;16.03;35.01
77120;BME280;66073;47.730;9.352;2023-06-14T00:05:07;96128.63;;;16.08;34.84
77120;BME280;66073;47.730;9.352;2023-06-14T00:07:37;96139.19;;;16.13;34.38
77120;BME280;66073;47.730;9.352;2023-06-14T00:10:10;96136.31;;;16.18;34.47
77120;BME280;66073;47.730;9.352;2023-06-14T00:12:37;96136.97;;;16.15;34.66
77120;BME280;66073;47.730;9.352;2023-06-14T00:15:03;96124.75;;;16.17;34.09
77120;BME280;66073;47.730;9.352;2023-06-14T00:17:29;96125.09;;;16.16;34.67
77120;BME280;66073;47.730;9.352;2023-06-14T00:19:59;96127.97;;;16.11;34.64
77120;BME280;66073;47.730;9.352;2023-06-14T00:22:25;96139.41;;;15.99;35.69
77120;BME280;66073;47.730;9.352;2023-06-14T00:24:51;96133.56;;;15.88;35.29
77120;BME280;66073;47.730;9.352;2023-06-14T00:27:17;96137.38;;;15.87;35.75
77120;BME280;66073;47.730;9.352;2023-06-14T00:29:43;96134.56;;;15.75;35.71
77120;BME280;66073;47.730;9.352;2023-06-14T00:32:08;96135.63;;;15.92;35.06
77120;BME280;66073;47.730;9.352;2023-06-14T00:34:34;96137.19;;;15.93;35.16
77120;BME280;66073;47.730;9.352;2023-06-14T00:37:00;96139.28;;;15.87;35.88
77120;BME280;66073;47.730;9.352;2023-06-14T00:39:25;96136.47;;;15.66;36.73
77120;BME280;66073;47.730;9.352;2023-06-14T00:41:51;96137.41;;;15.45;37.47
77120;BME280;66073;47.730;9.352;2023-06-14T00:44:17;96134.56;;;15.41;36.83
77120;BME280;66073;47.730;9.352;2023-06-14T00:46:44;96125.72;;;15.32;36.90
77120;BME280;66073;47.730;9.352;2023-06-14T00:49:12;96126.69;;;15.53;37.17
77120;BME280;66073;47.730;9.352;2023-06-14T00:51:41;96132.06;;;15.53;36.55
77120;BME280;66073;47.730;9.352;2023-06-14T00:54:07;96128.13;;;15.51;36.61
77120;BME280;66073;47.730;9.352;2023-06-14T00:56:36;96128.91;;;15.51;36.66
77120;BME280;66073;47.730;9.352;2023-06-14T00:59:02;96126.69;;;15.53;35.76
77120;BME280;66073;47.730;9.352;2023-06-14T01:01:28;96127.63;;;15.57;36.26
77120;BME280;66073;47.730;9.352;2023-06-14T01:03:54;96124.13;;;15.48;37.15
77120;BME280;66073;47.730;9.352;2023-06-14T01:12:13;96126.81;;;15.31;37.86
77120;BME280;66073;47.730;9.352;2023-06-14T01:14:41;96119.72;;;15.18;37.48
77120;BME280;66073;47.730;9.352;2023-06-14T01:17:08;96122.88;;;15.03;39.18
77120;BME280;66073;47.730;9.352;2023-06-14T01:19:41;96117.66;;;14.89;41.88
77120;BME280;66073;47.730;9.352;2023-06-14T01:22:08;96111.34;;;14.94;37.99
77120;BME280;66073;47.730;9.352;2023-06-14T01:24:33;96114.03;;;15.11;37.95
77120;BME280;66073;47.730;9.352;2023-06-14T01:27:02;96116.72;;;15.19;37.20
77120;BME280;66073;47.730;9.352;2023-06-14T01:29:29;96109.75;;;15.18;37.23
77120;BME280;66073;47.730;9.352;2023-06-14T01:31:59;96107.84;;;15.27;37.72
77120;BME280;66073;47.730;9.352;2023-06-14T01:34:26;96108.50;;;15.33;37.43
77120;BME280;66073;47.730;9.352;2023-06-14T01:36:53;96108.00;;;15.31;37.85
77120;BME280;66073;47.730;9.352;2023-06-14T01:39:22;96104.06;;;15.20;38.21
77120;BME280;66073;47.730;9.352;2023-06-14T01:41:49;96105.19;;;15.02;38.96
77120;BME280;66073;47.730;9.352;2023-06-14T01:44:17;96108.97;;;15.01;39.47
77120;BME280;66073;47.730;9.352;2023-06-14T01:46:44;96102.00;;;14.82;39.82
77120;BME280;66073;47.730;9.352;2023-06-14T01:49:11;96106.69;;;14.51;43.42
77120;BME280;66073;47.730;9.352;2023-06-14T01:51:36;96111.53;;;13.62;46.40
77120;BME280;66073;47.730;9.352;2023-06-14T01:54:02;96105.41;;;13.03;47.96
77120;BME280;66073;47.730;9.352;2023-06-14T01:56:27;96103.66;;;12.35;49.67
77120;BME280;66073;47.730;9.352;2023-06-14T01:58:53;96102.78;;;11.85;51.54
77120;BME280;66073;47.730;9.352;2023-06-14T02:01:19;96098.56;;;11.52;52.67
77120;BME280;66073;47.730;9.352;2023-06-14T02:03:52;96107.81;;;11.41;53.28
77120;BME280;66073;47.730;9.352;2023-06-14T02:06:19;96102.50;;;11.55;52.75
77120;BME280;66073;47.730;9.352;2023-06-14T02:08:44;96107.03;;;11.40;52.93
77120;BME280;66073;47.730;9.352;2023-06-14T02:11:10;96110.81;;;11.21;53.86
77120;BME280;66073;47.730;9.352;2023-06-14T02:13:35;96110.28;;;11.05;54.50
77120;BME280;66073;47.730;9.352;2023-06-14T02:16:01;96114.72;;;11.10;54.68
77120;BME280;66073;47.730;9.352;2023-06-14T02:18:26;96114.41;;;10.98;54.88
77120;BME280;66073;47.730;9.352;2023-06-14T02:20:52;96118.66;;;10.99;55.18
77120;BME280;66073;47.730;9.352;2023-06-14T02:23:18;96113.59;;;10.97;55.06
77120;BME280;66073;47.730;9.352;2023-06-14T02:25:43;96116.41;;;10.87;55.74
77120;BME280;66073;47.730;9.352;2023-06-14T02:28:10;96115.41;;;10.64;56.05
77120;BME280;66073;47.730;9.352;2023-06-14T02:30:36;96116.91;;;10.52;57.11
77120;BME280;66073;47.730;9.352;2023-06-14T02:33:01;96117.56;;;10.62;56.59
77120;BME280;66073;47.730;9.352;2023-06-14T02:35:27;96123.28;;;10.56;56.78
77120;BME280;66073;47.730;9.352;2023-06-14T02:37:53;96121.34;;;10.80;56.12
77120;BME280;66073;47.730;9.352;2023-06-14T02:40:19;96118.28;;;10.86;55.52
77120;BME280;66073;47.730;9.352;2023-06-14T02:42:46;96117.72;;;10.52;56.52
77120;BME280;66073;47.730;9.352;2023-06-14T02:45:11;96123.06;;;10.52;56.62
77120;BME280;66073;47.730;9.352;2023-06-14T02:47:36;96128.81;;;10.59;56.30
77120;BME280;66073;47.730;9.352;2023-06-14T02:50:02;96126.13;;;10.40;56.56
77120;BME280;66073;47.730;9.352;2023-06-14T02:52:28;96130.25;;;10.70;55.35
77120;BME280;66073;47.730;9.352;2023-06-14T02:54:54;96130.25;;;11.08;53.17
77120;BME280;66073;47.730;9.352;2023-06-14T02:57:21;96123.28;;;11.44;50.95
77120;BME280;66073;47.730;9.352;2023-06-14T02:59:46;96129.56;;;12.26;46.51
77120;BME280;66073;47.730;9.352;2023-06-14T03:02:12;96124.91;;;12.81;45.37
77120;BME280;66073;47.730;9.352;2023-06-14T03:04:37;96131.78;;;13.10;44.32
77120;BME280;66073;47.730;9.352;2023-06-14T03:07:04;96126.25;;;12.92;46.66
77120;BME280;66073;47.730;9.352;2023-06-14T03:09:39;96132.38;;;11.43;52.74
77120;BME280;66073;47.730;9.352;2023-06-14T03:12:05;96134.75;;;10.93;54.78
77120;BME280;66073;47.730;9.352;2023-06-14T03:14:35;96137.47;;;10.88;55.36
77120;BME280;66073;47.730;9.352;2023-06-14T03:17:00;96136.59;;;10.74;55.77
77120;BME280;66073;47.730;9.352;2023-06-14T03:19:26;96143.09;;;10.68;56.30
77120;BME280;66073;47.730;9.352;2023-06-14T03:21:52;96144.41;;;10.52;56.81
77120;BME280;66073;47.730;9.352;2023-06-14T03:24:19;96148.84;;;10.38;57.36
77120;BME280;66073;47.730;9.352;2023-06-14T03:26:45;96148.88;;;10.09;58.61
77120;BME280;66073;47.730;9.352;2023-06-14T03:29:10;96153.78;;;10.26;58.28
77120;BME280;66073;47.730;9.352;2023-06-14T03:31:36;96144.03;;;10.11;58.64
77120;BME280;66073;47.730;9.352;2023-06-14T03:34:02;96149.09;;;10.13;58.18
77120;BME280;66073;47.730;9.352;2023-06-14T03:36:27;96152.34;;;10.33;57.03
77120;BME280;66073;47.730;9.352;2023-06-14T03:38:53;96155.00;;;10.76;55.99
77120;BME280;66073;47.730;9.352;2023-06-14T03:41:19;96168.69;;;10.51;56.44
77120;BME280;66073;47.730;9.352;2023-06-14T03:43:45;96161.88;;;10.39;57.45
77120;BME280;66073;47.730;9.352;2023-06-14T03:46:10;96167.78;;;10.13;58.58
77120;BME280;66073;47.730;9.352;2023-06-14T03:48:36;96174.31;;;10.25;58.40
77120;BME280;66073;47.730;9.352;2023-06-14T03:51:01;96172.28;;;9.88;59.43
77120;BME280;66073;47.730;9.352;2023-06-14T03:53:27;96177.78;;;9.97;59.34
77120;BME280;66073;47.730;9.352;2023-06-14T03:55:54;96186.50;;;10.31;58.42
77120;BME280;66073;47.730;9.352;2023-06-14T03:58:20;96191.69;;;10.23;58.46
77120;BME280;66073;47.730;9.352;2023-06-14T04:00:46;96196.84;;;10.14;58.79
77120;BME280;66073;47.730;9.352;2023-06-14T04:03:11;96190.09;;;10.22;58.48
77120;BME280;66073;47.730;9.352;2023-06-14T04:05:41;96192.66;;;10.32;58.43
77120;BME280;66073;47.730;9.352;2023-06-14T04:08:09;96198.78;;;10.32;58.69
77120;BME280;66073;47.730;9.352;2023-06-14T04:10:35;96197.84;;;10.42;58.14
77120;BME280;66073;47.730;9.352;2023-06-14T04:13:00;96199.53;;;10.80;56.65
77120;BME280;66073;47.730;9.352;2023-06-14T04:15:26;96208.50;;;10.89;56.24
77120;BME280;66073;47.730;9.352;2023-06-14T04:17:53;96205.19;;;10.98;56.21
77120;BME280;66073;47.730;9.352;2023-06-14T04:20:22;96205.03;;;11.08;55.76
77120;BME280;66073;47.730;9.352;2023-06-14T04:22:49;96209.38;;;11.22;55.48
77120;BME280;66073;47.730;9.352;2023-06-14T04:25:15;96223.81;;;10.60;57.90
77120;BME280;66073;47.730;9.352;2023-06-14T04:27:40;96220.81;;;10.85;57.88
77120;BME280;66073;47.730;9.352;2023-06-14T04:30:07;96223.50;;;10.85;57.79
77120;BME280;66073;47.730;9.352;2023-06-14T04:32:33;96212.94;;;10.75;57.99
77120;BME280;66073;47.730;9.352;2023-06-14T04:35:08;96212.41;;;11.16;57.54
77120;BME280;66073;47.730;9.352;2023-06-14T04:37:33;96207.50;;;11.23;56.97
77120;BME280;66073;47.730;9.352;2023-06-14T04:39:59;96214.50;;;11.37;56.87
77120;BME280;66073;47.730;9.352;2023-06-14T04:42:25;96220.50;;;11.48;56.71
77120;BME280;66073;47.730;9.352;2023-06-14T04:44:56;96219.59;;;11.71;56.14
77120;BME280;66073;47.730;9.352;2023-06-14T04:47:22;96221.03;;;11.82;55.64
77120;BME280;66073;47.730;9.352;2023-06-14T04:49:47;96225.66;;;12.09;55.32
77120;BME280;66073;47.730;9.352;2023-06-14T04:52:13;96223.31;;;12.35;54.63
77120;BME280;66073;47.730;9.352;2023-06-14T04:54:39;96225.69;;;12.50;53.62
77120;BME280;66073;47.730;9.352;2023-06-14T04:57:09;96230.16;;;12.68;52.30
77120;BME280;66073;47.730;9.352;2023-06-14T04:59:40;96226.28;;;12.74;52.58
77120;BME280;66073;47.730;9.352;2023-06-14T05:02:06;96225.19;;;12.89;52.24
77120;BME280;66073;47.730;9.352;2023-06-14T05:04:32;96231.13;;;13.00;51.55
77120;BME280;66073;47.730;9.352;2023-06-14T05:06:58;96224.97;;;13.13;50.84
77120;BME280;66073;47.730;9.352;2023-06-14T05:09:23;96223.28;;;13.17;50.81
77120;BME280;66073;47.730;9.352;2023-06-14T05:11:49;96229.41;;;13.31;50.80
77120;BME280;66073;47.730;9.352;2023-06-14T05:14:16;96223.22;;;13.44;50.98
77120;BME280;66073;47.730;9.352;2023-06-14T05:16:41;96232.63;;;13.55;51.25
77120;BME280;66073;47.730;9.352;2023-06-14T05:19:08;96231.41;;;13.61;50.66
77120;BME280;66073;47.730;9.352;2023-06-14T05:21:33;96226.66;;;13.58;51.00
77120;BME280;66073;47.730;9.352;2023-06-14T05:24:00;96225.91;;;13.66;50.60
77120;BME280;66073;47.730;9.352;2023-06-14T05:26:26;96224.34;;;13.65;50.69
77120;BME280;66073;47.730;9.352;2023-06-14T05:28:54;96232.03;;;13.80;50.45
77120;BME280;66073;47.730;9.352;2023-06-14T05:31:22;96235.38;;;13.86;50.01
77120;BME280;66073;47.730;9.352;2023-06-14T05:33:50;96227.25;;;14.00;50.40
77120;BME280;66073;47.730;9.352;2023-06-14T05:36:16;96238.41;;;14.15;50.42
77120;BME280;66073;47.730;9.352;2023-06-14T05:38:41;96245.66;;;14.37;49.40
77120;BME280;66073;47.730;9.352;2023-06-14T05:41:07;96245.69;;;14.46;48.71
77120;BME280;66073;47.730;9.352;2023-06-14T05:43:32;96250.31;;;14.54;48.66
77120;BME280;66073;47.730;9.352;2023-06-14T05:45:58;96249.13;;;14.77;48.72
77120;BME280;66073;47.730;9.352;2023-06-14T05:48:23;96259.59;;;14.87;48.30
77120;BME280;66073;47.730;9.352;2023-06-14T05:50:48;96253.00;;;15.10;48.24
77120;BME280;66073;47.730;9.352;2023-06-14T05:53:14;96239.13;;;15.25;47.85
77120;BME280;66073;47.730;9.352;2023-06-14T05:55:40;96246.28;;;15.47;47.66
77120;BME280;66073;47.730;9.352;2023-06-14T05:58:05;96248.66;;;15.49;45.80
77120;BME280;66073;47.730;9.352;2023-06-14T06:00:31;96250.41;;;15.70;45.17
77120;BME280;66073;47.730;9.352;2023-06-14T06:02:56;96251.19;;;15.88;46.04
77120;BME280;66073;47.730;9.352;2023-06-14T06:05:26;96253.91;;;15.97;45.52
77120;BME280;66073;47.730;9.352;2023-06-14T06:07:51;96250.69;;;16.29;45.69
77120;BME280;66073;47.730;9.352;2023-06-14T06:10:17;96250.63;;;16.37;44.30
77120;BME280;66073;47.730;9.352;2023-06-14T06:12:42;96246.81;;;16.47;44.53
77120;BME280;66073;47.730;9.352;2023-06-14T06:15:08;96255.50;;;16.53;44.47
77120;BME280;66073;47.730;9.352;2023-06-14T06:17:37;96254.22;;;16.67;44.26
77120;BME280;66073;47.730;9.352;2023-06-14T06:20:04;96262.47;;;16.62;44.47
77120;BME280;66073;47.730;9.352;2023-06-14T06:22:30;96261.78;;;16.82;44.15
77120;BME280;66073;47.730;9.352;2023-06-14T06:24:56;96275.19;;;16.91;42.54
77120;BME280;66073;47.730;9.352;2023-06-14T06:27:21;96267.00;;;17.17;41.94
77120;BME280;66073;47.730;9.352;2023-06-14T06:29:47;96267.47;;;17.19;41.14
77120;BME280;66073;47.730;9.352;2023-06-14T06:32:14;96270.13;;;17.48;40.24
77120;BME280;66073;47.730;9.352;2023-06-14T06:34:40;96269.78;;;17.58;38.94
77120;BME280;66073;47.730;9.352;2023-06-14T06:37:05;96265.09;;;17.67;39.95
77120;BME280;66073;47.730;9.352;2023-06-14T06:39:31;96264.91;;;17.72;39.40
77120;BME280;66073;47.730;9.352;2023-06-14T06:41:56;96268.38;;;17.73;39.43
77120;BME280;66073;47.730;9.352;2023-06-14T06:44:22;96267.66;;;17.64;39.50
77120;BME280;66073;47.730;9.352;2023-06-14T06:46:48;96272.53;;;17.70;39.18
77120;BME280;66073;47.730;9.352;2023-06-14T06:49:13;96271.88;;;17.94;38.86
77120;BME280;66073;47.730;9.352;2023-06-14T06:51:42;96273.06;;;17.64;38.83
77120;BME280;66073;47.730;9.352;2023-06-14T06:54:09;96266.75;;;18.01;38.50
77120;BME280;66073;47.730;9.352;2023-06-14T06:56:35;96270.66;;;18.24;39.14
77120;BME280;66073;47.730;9.352;2023-06-14T06:59:00;96268.75;;;18.37;39.77
77120;BME280;66073;47.730;9.352;2023-06-14T07:01:26;96278.53;;;18.62;39.98
77120;BME280;66073;47.730;9.352;2023-06-14T07:03:54;96281.34;;;18.66;38.91
77120;BME280;66073;47.730;9.352;2023-06-14T07:06:20;96278.25;;;18.43;39.27
77120;BME280;66073;47.730;9.352;2023-06-14T07:08:46;96287.72;;;18.49;39.61
77120;BME280;66073;47.730;9.352;2023-06-14T07:11:14;96281.47;;;18.69;40.54
77120;BME280;66073;47.730;9.352;2023-06-14T07:13:39;96286.72;;;19.11;39.67
77120;BME280;66073;47.730;9.352;2023-06-14T07:16:05;96282.97;;;18.91;37.08
77120;BME280;66073;47.730;9.352;2023-06-14T07:18:31;96295.19;;;19.21;35.93
77120;BME280;66073;47.730;9.352;2023-06-14T07:20:57;96297.09;;;19.21;36.20
77120;BME280;66073;47.730;9.352;2023-06-14T07:23:23;96297.09;;;19.45;34.90
77120;BME280;66073;47.730;9.352;2023-06-14T07:25:48;96295.06;;;19.54;34.28
77120;BME280;66073;47.730;9.352;2023-06-14T07:28:14;96288.19;;;19.69;34.44
77120;BME280;66073;47.730;9.352;2023-06-14T07:30:39;96291.50;;;19.90;32.84
77120;BME280;66073;47.730;9.352;2023-06-14T07:33:05;96295.91;;;19.83;32.75
77120;BME280;66073;47.730;9.352;2023-06-14T07:35:31;96292.75;;;19.80;32.53
77120;BME280;66073;47.730;9.352;2023-06-14T07:37:56;96284.13;;;20.03;32.64
77120;BME280;66073;47.730;9.352;2023-06-14T07:40:22;96292.63;;;20.17;33.83
77120;BME280;66073;47.730;9.352;2023-06-14T07:42:47;96294.91;;;20.15;33.34
77120;BME280;66073;47.730;9.352;2023-06-14T07:45:15;96296.34;;;20.37;32.51
77120;BME280;66073;47.730;9.352;2023-06-14T07:47:40;96287.19;;;20.57;31.77
77120;BME280;66073;47.730;9.352;2023-06-14T07:50:06;96280.69;;;20.46;32.24
77120;BME280;66073;47.730;9.352;2023-06-14T07:52:31;96287.56;;;20.71;31.18
77120;BME280;66073;47.730;9.352;2023-06-14T07:54:57;96291.13;;;20.91;32.54
77120;BME280;66073;47.730;9.352;2023-06-14T07:57:23;96287.03;;;20.81;29.98
77120;BME280;66073;47.730;9.352;2023-06-14T07:59:49;96286.41;;;20.88;28.52
77120;BME280;66073;47.730;9.352;2023-06-14T08:02:15;96294.31;;;20.93;28.42
77120;BME280;66073;47.730;9.352;2023-06-14T08:04:40;96288.97;;;20.96;29.19
77120;BME280;66073;47.730;9.352;2023-06-14T08:07:07;96290.19;;;20.99;30.42
77120;BME280;66073;47.730;9.352;2023-06-14T08:09:32;96294.16;;;21.17;29.77
77120;BME280;66073;47.730;9.352;2023-06-14T08:11:58;96286.09;;;21.36;28.99
77120;BME280;66073;47.730;9.352;2023-06-14T08:14:23;96285.81;;;21.41;29.01
77120;BME280;66073;47.730;9.352;2023-06-14T08:16:49;96286.44;;;21.69;29.15
77120;BME280;66073;47.730;9.352;2023-06-14T08:19:15;96282.84;;;21.65;30.72
77120;BME280;66073;47.730;9.352;2023-06-14T08:21:42;96298.69;;;22.14;26.67
77120;BME280;66073;47.730;9.352;2023-06-14T08:24:10;96283.44;;;22.29;27.99
77120;BME280;66073;47.730;9.352;2023-06-14T08:26:38;96290.81;;;22.47;28.83
77120;BME280;66073;47.730;9.352;2023-06-14T08:29:04;96290.75;;;22.66;27.92
77120;BME280;66073;47.730;9.352;2023-06-14T08:31:30;96282.66;;;22.47;28.19
77120;BME280;66073;47.730;9.352;2023-06-14T08:33:57;96287.88;;;22.17;27.54
77120;BME280;66073;47.730;9.352;2023-06-14T08:36:22;96294.13;;;22.18;27.97
77120;BME280;66073;47.730;9.352;2023-06-14T08:38:48;96293.28;;;22.56;29.93
77120;BME280;66073;47.730;9.352;2023-06-14T08:41:21;96290.03;;;22.89;27.91
77120;BME280;66073;47.730;9.352;2023-06-14T08:43:47;96303.19;;;22.87;27.79
77120;BME280;66073;47.730;9.352;2023-06-14T08:46:17;96305.31;;;22.55;28.73
77120;BME280;66073;47.730;9.352;2023-06-14T08:48:46;96302.59;;;22.74;28.12
77120;BME280;66073;47.730;9.352;2023-06-14T08:51:13;96302.38;;;22.44;27.98
77120;BME280;66073;47.730;9.352;2023-06-14T08:53:42;96300.78;;;22.82;29.26
77120;BME280;66073;47.730;9.352;2023-06-14T08:56:09;96300.44;;;23.06;27.85
77120;BME280;66073;47.730;9.352;2023-06-14T08:58:41;96306.97;;;23.24;27.14
77120;BME280;66073;47.730;9.352;2023-06-14T09:01:11;96309.44;;;23.33;27.52
77120;BME280;66073;47.730;9.352;2023-06-14T09:03:40;96298.91;;;23.08;27.20
77120;BME280;66073;47.730;9.352;2023-06-14T09:06:07;96304.53;;;23.19;26.32
77120;BME280;66073;47.730;9.352;2023-06-14T09:08:41;96308.91;;;23.46;26.66
77120;BME280;66073;47.730;9.352;2023-06-14T09:11:07;96305.88;;;23.06;28.02
77120;BME280;66073;47.730;9.352;2023-06-14T09:13:33;96299.25;;;23.79;28.52
77120;BME280;66073;47.730;9.352;2023-06-14T09:16:00;96297.31;;;24.09;25.54
77120;BME280;66073;47.730;9.352;2023-06-14T09:18:40;96299.66;;;23.54;27.78
77120;BME280;66073;47.730;9.352;2023-06-14T09:21:07;96298.50;;;24.11;26.97
77120;BME280;66073;47.730;9.352;2023-06-14T09:23:36;96303.66;;;23.60;27.45
77120;BME280;66073;47.730;9.352;2023-06-14T09:26:07;96297.44;;;24.16;29.21
77120;BME280;66073;47.730;9.352;2023-06-14T09:28:33;96306.47;;;24.53;28.00
77120;BME280;66073;47.730;9.352;2023-06-14T09:31:00;96307.44;;;24.38;26.73
77120;BME280;66073;47.730;9.352;2023-06-14T09:33:25;96308.75;;;24.51;27.06
77120;BME280;66073;47.730;9.352;2023-06-14T09:35:52;96309.88;;;23.87;26.52
77120;BME280;66073;47.730;9.352;2023-06-14T09:38:18;96299.41;;;23.89;26.21
77120;BME280;66073;47.730;9.352;2023-06-14T09:40:43;96302.56;;;24.54;26.29
77120;BME280;66073;47.730;9.352;2023-06-14T09:43:09;96309.06;;;24.80;26.94
77120;BME280;66073;47.730;9.352;2023-06-14T09:45:35;96309.66;;;24.96;26.67
77120;BME280;66073;47.730;9.352;2023-06-14T09:48:02;96306.38;;;24.46;26.06
77120;BME280;66073;47.730;9.352;2023-06-14T09:50:27;96299.09;;;25.38;25.01
77120;BME280;66073;47.730;9.352;2023-06-14T09:53:02;96301.75;;;25.28;24.28
77120;BME280;66073;47.730;9.352;2023-06-14T09:55:30;96303.13;;;25.04;23.99
77120;BME280;66073;47.730;9.352;2023-06-14T09:57:57;96307.16;;;25.21;25.59
77120;BME280;66073;47.730;9.352;2023-06-14T10:00:26;96304.94;;;25.40;23.06
77120;BME280;66073;47.730;9.352;2023-06-14T10:02:54;96314.03;;;25.04;27.05
77120;BME280;66073;47.730;9.352;2023-06-14T10:05:25;96309.06;;;25.60;24.58
77120;BME280;66073;47.730;9.352;2023-06-14T10:07:59;96302.00;;;25.59;23.88
77120;BME280;66073;47.730;9.352;2023-06-14T10:10:25;96310.34;;;25.81;25.72
77120;BME280;66073;47.730;9.352;2023-06-14T10:12:51;96315.88;;;25.88;23.30
77120;BME280;66073;47.730;9.352;2023-06-14T10:15:28;96310.72;;;25.79;26.31
77120;BME280;66073;47.730;9.352;2023-06-14T10:18:14;96308.63;;;25.58;25.15
77120;BME280;66073;47.730;9.352;2023-06-14T10:23:37;96301.81;;;25.38;25.91
77120;BME280;66073;47.730;9.352;2023-06-14T10:26:05;96308.50;;;25.95;25.40
77120;BME280;66073;47.730;9.352;2023-06-14T10:28:31;96305.69;;;26.60;23.69
77120;BME280;66073;47.730;9.352;2023-06-14T10:31:08;96291.75;;;25.46;23.21
77120;BME280;66073;47.730;9.352;2023-06-14T10:36:24;96299.13;;;25.96;27.07
77120;BME280;66073;47.730;9.352;2023-06-14T10:41:35;96296.00;;;25.98;22.45
77120;BME280;66073;47.730;9.352;2023-06-14T10:46:39;96293.19;;;25.29;24.33
77120;BME280;66073;47.730;9.352;2023-06-14T10:49:05;96298.28;;;25.89;25.18
77120;BME280;66073;47.730;9.352;2023-06-14T10:51:40;96291.88;;;25.16;23.12
77120;BME280;66073;47.730;9.352;2023-06-14T10:54:13;96285.22;;;25.10;23.75
77120;BME280;66073;47.730;9.352;2023-06-14T10:56:46;96281.97;;;26.06;23.52
77120;BME280;66073;47.730;9.352;2023-06-14T10:59:13;96287.63;;;26.49;23.86
77120;BME280;66073;47.730;9.352;2023-06-14T11:04:43;96272.09;;;26.85;23.73
77120;BME280;66073;47.730;9.352;2023-06-14T11:07:40;96289.75;;;27.12;24.57
77120;BME280;66073;47.730;9.352;2023-06-14T11:12:55;96284.44;;;26.33;23.93
77120;BME280;66073;47.730;9.352;2023-06-14T11:15:28;96294.06;;;27.20;20.78
77120;BME280;66073;47.730;9.352;2023-06-14T11:17:55;96285.03;;;27.02;22.39
77120;BME280;66073;47.730;9.352;2023-06-14T11:20:25;96287.59;;;26.38;23.69
77120;BME280;66073;47.730;9.352;2023-06-14T11:22:52;96277.59;;;26.85;21.05
77120;BME280;66073;47.730;9.352;2023-06-14T11:25:18;96286.63;;;27.24;23.75
77120;BME280;66073;47.730;9.352;2023-06-14T11:27:44;96282.28;;;27.83;21.15
77120;BME280;66073;47.730;9.352;2023-06-14T11:30:10;96290.13;;;27.85;20.66
77120;BME280;66073;47.730;9.352;2023-06-14T11:32:39;96285.06;;;27.48;23.31
77120;BME280;66073;47.730;9.352;2023-06-14T11:35:06;96283.47;;;27.86;22.82
77120;BME280;66073;47.730;9.352;2023-06-14T11:37:32;96279.19;;;27.25;22.72
77120;BME280;66073;47.730;9.352;2023-06-14T11:39:59;96276.03;;;26.98;23.91
77120;BME280;66073;47.730;9.352;2023-06-14T11:42:28;96277.09;;;26.61;24.26
77120;BME280;66073;47.730;9.352;2023-06-14T11:44:55;96271.25;;;26.56;23.36
77120;BME280;66073;47.730;9.352;2023-06-14T11:47:21;96268.91;;;26.76;24.95
77120;BME280;66073;47.730;9.352;2023-06-14T11:49:47;96275.59;;;26.71;24.72
77120;BME280;66073;47.730;9.352;2023-06-14T11:52:13;96274.88;;;27.02;23.40
77120;BME280;66073;47.730;9.352;2023-06-14T11:54:39;96274.88;;;26.99;22.12
77120;BME280;66073;47.730;9.352;2023-06-14T11:57:07;96276.81;;;26.95;22.65
77120;BME280;66073;47.730;9.352;2023-06-14T11:59:38;96279.91;;;27.89;20.56
77120;BME280;66073;47.730;9.352;2023-06-14T12:02:05;96275.63;;;27.74;23.41
77120;BME280;66073;47.730;9.352;2023-06-14T12:04:31;96274.53;;;28.65;22.67
77120;BME280;66073;47.730;9.352;2023-06-14T12:06:57;96275.56;;;28.96;21.38
77120;BME280;66073;47.730;9.352;2023-06-14T12:09:23;96273.13;;;29.05;21.45
77120;BME280;66073;47.730;9.352;2023-06-14T12:11:59;96273.41;;;28.55;23.73
77120;BME280;66073;47.730;9.352;2023-06-14T12:14:30;96271.13;;;28.36;23.07
77120;BME280;66073;47.730;9.352;2023-06-14T12:17:05;96272.34;;;29.01;20.90
77120;BME280;66073;47.730;9.352;2023-06-14T12:19:42;96262.69;;;28.82;18.71
77120;BME280;66073;47.730;9.352;2023-06-14T12:22:11;96266.22;;;28.79;18.98
77120;BME280;66073;47.730;9.352;2023-06-14T12:24:37;96264.09;;;28.39;19.25
77120;BME280;66073;47.730;9.352;2023-06-14T12:27:04;96267.16;;;29.17;20.98
77120;BME280;66073;47.730;9.352;2023-06-14T12:29:31;96263.53;;;27.46;20.71
77120;BME280;66073;47.730;9.352;2023-06-14T12:31:57;96262.34;;;27.30;21.41
77120;BME280;66073;47.730;9.352;2023-06-14T12:34:23;96264.25;;;27.89;20.85
77120;BME280;66073;47.730;9.352;2023-06-14T12:36:58;96254.53;;;28.57;18.57
77120;BME280;66073;47.730;9.352;2023-06-14T12:39:23;96256.69;;;28.98;20.98
77120;BME280;66073;47.730;9.352;2023-06-14T12:41:49;96260.47;;;29.63;18.60
77120;BME280;66073;47.730;9.352;2023-06-14T12:44:15;96257.75;;;29.11;19.34
77120;BME280;66073;47.730;9.352;2023-06-14T12:46:42;96260.00;;;27.21;23.20
77120;BME280;66073;47.730;9.352;2023-06-14T12:49:09;96256.53;;;28.61;20.13
77120;BME280;66073;47.730;9.352;2023-06-14T12:51:35;96261.44;;;28.90;18.59
77120;BME280;66073;47.730;9.352;2023-06-14T12:54:00;96261.16;;;29.29;19.90
77120;BME280;66073;47.730;9.352;2023-06-14T12:56:26;96266.88;;;30.27;19.08
77120;BME280;66073;47.730;9.352;2023-06-14T12:58:52;96271.63;;;28.93;19.61
77120;BME280;66073;47.730;9.352;2023-06-14T13:01:18;96262.34;;;29.32;19.36
77120;BME280;66073;47.730;9.352;2023-06-14T13:03:44;96270.03;;;29.92;18.94
77120;BME280;66073;47.730;9.352;2023-06-14T13:06:09;96263.13;;;30.44;20.62
77120;BME280;66073;47.730;9.352;2023-06-14T13:08:35;96263.97;;;28.67;20.03
77120;BME280;66073;47.730;9.352;2023-06-14T13:11:00;96264.50;;;28.34;20.89
77120;BME280;66073;47.730;9.352;2023-06-14T13:13:26;96255.47;;;29.50;18.21
77120;BME280;66073;47.730;9.352;2023-06-14T13:15:51;96267.09;;;30.43;17.40
77120;BME280;66073;47.730;9.352;2023-06-14T13:18:17;96278.41;;;28.78;22.50
77120;BME280;66073;47.730;9.352;2023-06-14T13:20:42;96269.00;;;29.34;21.82